Time;durP1;ratioP1;P1;durP2;ratioP2;P2;SDS_P1;SDS_P2;PMS_P1;PMS_P2;Temp;Humidity;BMP_temperature;BMP_pressure;BME280_temperature;BME280_humidity;BME280_pressure;Samples;Min_cycle;Max_cycle;Signal;HPM_P1;HPM_P2
2023/04/26 00:54:42;;;;;;;11.02;3.92;;;;;;;5.34;100.00;100572.38;5599460;23;20141;-94
2023/04/26 00:57:17;;;;;;;7.78;3.50;;;;;;;5.24;100.00;100574.34;5013985;28;20076;-93
2023/04/26 00:59:47;;;;;;;6.10;3.80;;;;;;;5.20;100.00;100566.56;5019405;28;20046;-94
2023/04/26 01:02:25;;;;;;;7.90;3.85;;;;;;;5.09;100.00;100552.81;5020121;28;20049;-92
2023/04/26 01:04:54;;;;;;;9.02;3.90;;;;;;;5.16;100.00;100557.91;5014618;28;20089;-94
2023/04/26 01:07:27;;;;;;;6.25;3.90;;;;;;;5.31;100.00;100563.72;5003381;28;20046;-94
2023/04/26 01:09:58;;;;;;;5.88;3.05;;;;;;;4.93;100.00;100494.56;5001859;28;20034;-95
2023/04/26 01:12:28;;;;;;;6.65;3.38;;;;;;;5.08;100.00;100509.09;5018404;28;20030;-94
2023/04/26 01:14:56;;;;;;;5.35;3.40;;;;;;;4.77;100.00;100467.78;5014604;28;20041;-93
2023/04/26 01:17:25;;;;;;;10.15;3.42;;;;;;;5.21;100.00;100539.41;5029331;28;20048;-92
2023/04/26 01:19:52;;;;;;;7.93;3.30;;;;;;;5.22;100.00;100559.50;4995781;28;20056;-92
2023/04/26 01:22:24;;;;;;;8.52;3.83;;;;;;;5.00;100.00;100538.16;5032933;28;20041;-91
2023/04/26 01:24:55;;;;;;;8.90;4.10;;;;;;;4.92;100.00;100534.81;5033995;28;20065;-91
2023/04/26 01:27:29;;;;;;;11.00;4.30;;;;;;;4.85;100.00;100548.97;5003728;28;20116;-91
2023/04/26 01:29:59;;;;;;;5.80;3.63;;;;;;;4.76;100.00;100543.91;5016306;28;20113;-92
2023/04/26 01:32:29;;;;;;;7.60;3.55;;;;;;;4.75;100.00;100557.91;5019952;28;20094;-92
2023/04/26 01:35:00;;;;;;;9.63;4.13;;;;;;;4.44;100.00;100520.94;5020201;28;20050;-92
2023/04/26 01:37:46;;;;;;;6.28;3.33;;;;;;;4.49;100.00;100537.47;5013580;28;20042;-92
2023/04/26 01:40:25;;;;;;;6.68;3.60;;;;;;;4.42;100.00;100501.75;5035929;28;20073;-92
2023/04/26 01:42:52;;;;;;;9.40;3.80;;;;;;;4.52;100.00;100525.16;5001577;28;20042;-92
2023/04/26 01:45:20;;;;;;;8.63;4.18;;;;;;;4.44;100.00;100510.47;4999709;28;20038;-92
2023/04/26 01:47:50;;;;;;;10.07;3.97;;;;;;;4.09;100.00;100456.13;5034561;28;20042;-91
2023/04/26 01:50:18;;;;;;;8.25;3.88;;;;;;;4.58;100.00;100563.50;5015983;28;20073;-91
2023/04/26 01:52:48;;;;;;;9.48;4.32;;;;;;;4.47;100.00;100571.59;5012361;28;20084;-90
2023/04/26 01:55:16;;;;;;;8.35;4.10;;;;;;;3.83;100.00;100475.81;5006133;28;20145;-91
2023/04/26 01:57:44;;;;;;;6.88;3.70;;;;;;;4.35;100.00;100577.06;5006554;28;20046;-90
2023/04/26 02:00:11;;;;;;;7.72;3.97;;;;;;;4.27;100.00;100560.59;4993007;28;20042;-90
2023/04/26 02:02:40;;;;;;;6.47;4.10;;;;;;;4.40;100.00;100569.13;5011195;28;20046;-91
2023/04/26 02:05:13;;;;;;;7.50;3.70;;;;;;;4.36;100.00;100555.19;5001736;28;20052;-91
2023/04/26 02:07:51;;;;;;;7.05;4.43;;;;;;;4.37;100.00;100563.94;5001920;28;20042;-92
2023/04/26 02:10:29;;;;;;;8.68;4.43;;;;;;;4.29;100.00;100556.19;5014481;28;20046;-92
2023/04/26 02:12:58;;;;;;;12.55;4.28;;;;;;;4.32;100.00;100578.88;5001500;28;20054;-91
2023/04/26 02:15:26;;;;;;;10.07;4.63;;;;;;;4.14;100.00;100556.47;5020760;28;20105;-90
2023/04/26 02:17:54;;;;;;;6.88;4.25;;;;;;;4.13;100.00;100573.97;5016787;28;20034;-90
2023/04/26 02:20:23;;;;;;;6.18;4.30;;;;;;;4.15;100.00;100581.81;5021190;28;20045;-91
2023/04/26 02:22:50;;;;;;;11.13;4.53;;;;;;;4.13;100.00;100588.81;5017473;28;20102;-91
2023/04/26 02:25:21;;;;;;;8.75;3.83;;;;;;;4.05;100.00;100580.25;5008961;28;20047;-92
2023/04/26 02:35:37;;;;;;;10.73;4.55;;;;;;;4.04;100.00;100581.13;5021553;28;20041;-93
2023/04/26 02:38:09;;;;;;;9.43;4.35;;;;;;;4.07;100.00;100579.34;5021411;28;20046;-93
2023/04/26 02:40:39;;;;;;;7.80;4.30;;;;;;;4.07;100.00;100581.09;5020960;28;20062;-93
2023/04/26 02:43:19;;;;;;;8.23;4.43;;;;;;;4.13;100.00;100573.97;5020673;28;20049;-93
2023/04/26 02:46:00;;;;;;;7.82;4.20;;;;;;;4.06;100.00;100545.28;5054799;22;20062;-93
2023/04/26 02:48:28;;;;;;;10.07;5.05;;;;;;;4.14;100.00;100570.44;5023396;28;20065;-93
2023/04/26 02:50:58;;;;;;;8.20;4.20;;;;;;;4.09;100.00;100584.56;5023937;28;20038;-93
2023/04/26 02:53:45;;;;;;;9.57;4.88;;;;;;;4.02;100.00;100575.06;5040907;28;20041;-93
2023/04/26 02:56:21;;;;;;;8.68;4.05;;;;;;;4.00;100.00;100574.22;5040005;28;20046;-93
2023/04/26 02:58:51;;;;;;;8.43;4.38;;;;;;;3.63;100.00;100508.47;5024000;28;20069;-91
2023/04/26 03:24:04;;;;;;;8.52;4.90;;;;;;;3.69;100.00;100566.88;4843112;29;20053;-92
2023/04/26 03:27:32;;;;;;;9.52;5.40;;;;;;;3.51;100.00;100530.50;4864978;29;20054;-93
2023/04/26 03:37:17;;;;;;;6.75;4.32;;;;;;;3.57;100.00;100546.13;4853393;29;19911;-92
2023/04/26 03:39:51;;;;;;;7.20;4.53;;;;;;;3.63;100.00;100540.75;4848134;29;20050;-91
2023/04/26 03:42:21;;;;;;;10.05;5.00;;;;;;;3.52;100.00;100532.22;4909352;29;20065;-91
2023/04/26 03:45:06;;;;;;;7.80;5.10;;;;;;;3.58;100.00;100566.19;4876083;29;20068;-93
2023/04/26 03:47:46;;;;;;;9.40;4.70;;;;;;;3.57;100.00;100571.44;4871611;29;20053;-92
2023/04/26 03:50:19;;;;;;;9.63;5.05;;;;;;;3.57;100.00;100567.06;4887561;29;20051;-92
2023/04/26 03:52:55;;;;;;;9.43;4.68;;;;;;;3.52;100.00;100566.25;4871492;29;20430;-91
2023/04/26 03:55:37;;;;;;;8.80;5.30;;;;;;;3.50;100.00;100575.88;4872179;29;20075;-91
2023/04/26 03:58:07;;;;;;;9.15;4.90;;;;;;;3.45;100.00;100575.13;4928383;29;20043;-91
2023/04/26 04:00:48;;;;;;;10.10;4.70;;;;;;;3.35;100.00;100563.91;4948338;29;20059;-91
2023/04/26 04:03:16;;;;;;;6.57;4.38;;;;;;;3.43;100.00;100574.28;4946614;29;20047;-90
2023/04/26 04:05:44;;;;;;;10.90;5.05;;;;;;;3.27;100.00;100543.97;4960792;29;20126;-92
2023/04/26 04:08:14;;;;;;;6.32;4.63;;;;;;;3.37;100.00;100569.13;4964637;28;20081;-91
2023/04/26 04:10:52;;;;;;;9.57;4.97;;;;;;;3.33;100.00;100570.03;4964174;29;20051;-93
2023/04/26 04:13:26;;;;;;;7.47;4.80;;;;;;;3.26;100.00;100563.19;4966963;29;20047;-91
2023/04/26 04:15:58;;;;;;;11.27;4.50;;;;;;;3.16;100.00;100557.19;4971832;28;20043;-90
2023/04/26 04:18:30;;;;;;;10.80;5.30;;;;;;;3.20;100.00;100569.34;4978319;28;20047;-91
2023/04/26 04:21:00;;;;;;;6.65;4.50;;;;;;;3.16;100.00;100567.66;4979400;28;20055;-91
2023/04/26 04:23:38;;;;;;;9.93;4.97;;;;;;;3.08;100.00;100573.03;4979302;28;20049;-91
2023/04/26 04:26:18;;;;;;;7.82;4.53;;;;;;;3.08;100.00;100575.63;4978539;28;20078;-90
2023/04/26 04:28:46;;;;;;;9.05;5.07;;;;;;;3.02;100.00;100569.59;4980312;28;20062;-91
2023/04/26 04:31:16;;;;;;;8.48;4.63;;;;;;;2.88;100.00;100543.63;4979216;28;20035;-92
2023/04/26 04:33:51;;;;;;;11.38;4.68;;;;;;;3.12;100.00;100585.19;4979518;28;20051;-93
2023/04/26 04:37:03;;;;;;;11.30;4.72;;;;;;;3.11;100.00;100583.44;4979756;28;20062;-93
2023/04/26 04:40:00;;;;;;;6.80;4.45;;;;;;;3.15;100.00;100587.72;4977359;28;20057;-93
2023/04/26 04:42:54;;;;;;;11.50;4.75;;;;;;;3.20;100.00;100586.81;4977722;28;20042;-93
2023/04/26 04:46:03;;;;;;;11.65;5.25;;;;;;;3.24;100.00;100597.22;4982928;28;20053;-95
2023/04/26 04:49:23;;;;;;;7.90;4.45;;;;;;;3.30;100.00;100599.78;4998380;28;20066;-92
2023/04/26 04:52:16;;;;;;;12.18;5.13;;;;;;;3.05;100.00;100546.88;4998063;28;20089;-92
2023/04/26 04:54:46;;;;;;;7.15;4.40;;;;;;;3.36;100.00;100588.31;4997775;28;20050;-91
2023/04/26 04:57:26;;;;;;;9.38;4.72;;;;;;;3.02;100.00;100530.38;4995737;28;20042;-91
2023/04/26 05:00:06;;;;;;;10.75;5.00;;;;;;;2.87;100.00;100514.88;4995008;28;20106;-92
2023/04/26 05:02:46;;;;;;;10.70;5.13;;;;;;;3.13;100.00;100571.22;4993613;28;20042;-92
2023/04/26 05:05:28;;;;;;;9.40;5.60;;;;;;;3.49;100.00;100619.53;5151679;23;20042;-94
2023/04/26 05:08:11;;;;;;;10.40;5.82;;;;;;;3.03;100.00;100538.19;4989308;28;20057;-94
2023/04/26 05:10:58;;;;;;;13.35;6.07;;;;;;;3.28;100.00;100571.88;4985938;28;20069;-92
2023/04/26 05:13:41;;;;;;;14.82;7.03;;;;;;;3.44;100.00;100589.09;5003122;28;20038;-93
2023/04/26 05:16:26;;;;;;;16.00;6.38;;;;;;;3.56;100.00;100606.38;5017450;28;20058;-93
2023/04/26 05:19:08;;;;;;;8.20;5.78;;;;;;;3.73;100.00;100633.16;5018032;28;20038;-94
2023/04/26 05:21:47;;;;;;;10.90;5.55;;;;;;;3.78;100.00;100631.31;4987675;28;20057;-94
2023/04/26 05:24:43;;;;;;;10.23;6.03;;;;;;;3.81;100.00;100633.91;5001244;28;20038;-92
2023/04/26 05:27:27;;;;;;;12.93;6.88;;;;;;;3.46;100.00;100576.84;5187491;22;20476;-92
2023/04/26 05:30:23;;;;;;;11.45;7.00;;;;;;;3.91;100.00;100640.75;4974276;28;20468;-94
2023/04/26 05:33:09;;;;;;;10.68;6.88;;;;;;;3.97;100.00;100642.38;4988651;28;20090;-93
2023/04/26 05:35:40;;;;;;;15.02;7.53;;;;;;;3.96;100.00;100619.69;4993592;28;20039;-92
2023/04/26 05:38:31;;;;;;;14.68;7.40;;;;;;;4.03;100.00;100619.56;4993862;28;20043;-94
2023/04/26 05:41:34;;;;;;;14.50;7.47;;;;;;;4.30;100.00;100639.19;4993411;28;20042;-93
2023/04/26 05:44:25;;;;;;;13.88;7.63;;;;;;;4.28;100.00;100627.88;4995840;28;20065;-92
2023/04/26 05:47:50;;;;;;;14.05;7.82;;;;;;;4.46;100.00;100624.06;4994612;28;20042;-93
2023/04/26 05:50:36;;;;;;;13.77;6.95;;;;;;;4.71;100.00;100641.06;4997401;28;20046;-95
2023/04/26 05:54:00;;;;;;;12.45;6.13;;;;;;;4.93;100.00;100644.13;4996621;28;20065;-94
2023/04/26 05:56:48;;;;;;;11.45;6.07;;;;;;;5.10;100.00;100641.16;4991376;28;20069;-94
2023/04/26 05:59:51;;;;;;;13.23;6.00;;;;;;;5.32;100.00;100652.09;4991747;28;20043;-94
2023/04/26 06:09:32;;;;;;;10.40;4.07;;;;;;;5.86;100.00;100650.84;4953337;29;20434;-93
2023/04/26 06:12:15;;;;;;;;;;;;;;;6.03;100.00;100660.13;4981892;28;20119;-94
2023/04/26 06:14:50;;;;;;;8.77;4.15;;;;;;;6.15;100.00;100665.06;4992742;28;19953;-93
2023/04/26 06:17:54;;;;;;;7.10;3.60;;;;;;;6.34;100.00;100663.72;4992062;28;20038;-93
2023/04/26 06:21:21;;;;;;;10.98;3.97;;;;;;;6.60;96.80;100669.19;4993939;28;20078;-93
2023/04/26 06:23:59;;;;;;;6.57;2.88;;;;;;;6.56;92.26;100629.84;4994366;28;20039;-95
2023/04/26 06:26:44;;;;;;;6.43;2.97;;;;;;;7.11;86.46;100673.03;4996706;28;20034;-93
2023/04/26 06:29:36;;;;;;;5.30;2.45;;;;;;;7.46;79.02;100662.34;4964325;28;20050;-94
2023/04/26 06:32:23;;;;;;;5.43;2.20;;;;;;;7.58;75.01;100632.97;4973272;29;20050;-93
2023/04/26 06:35:02;;;;;;;8.20;2.58;;;;;;;7.89;72.65;100645.19;4957347;29;20067;-92
2023/04/26 06:37:38;;;;;;;6.45;2.78;;;;;;;8.49;71.23;100668.75;4957911;29;20134;-94
2023/04/26 06:40:16;;;;;;;6.65;3.17;;;;;;;8.65;67.34;100637.41;4956410;29;20115;-94
2023/04/26 06:43:11;;;;;;;8.82;2.80;;;;;;;8.75;65.63;100633.53;4959531;29;20106;-94
2023/04/26 06:46:03;;;;;;;;;;;;;;;;;;;;;
2023/04/26 06:49:17;;;;;;;5.20;2.72;;;;;;;9.67;60.02;100667.94;4971981;28;20048;-94
2023/04/26 06:51:58;;;;;;;5.72;2.80;;;;;;;9.73;59.83;100665.94;4959324;29;20043;-94
2023/04/26 06:54:52;;;;;;;;;;;;;;;;;;;;;
2023/04/26 06:58:09;;;;;;;5.85;2.58;;;;;;;9.53;58.59;100583.03;4974877;29;20047;-93
2023/04/26 07:00:58;;;;;;;5.80;2.40;;;;;;;10.04;57.94;100639.13;4975134;28;20051;-93
2023/04/26 07:03:52;;;;;;;5.20;2.17;;;;;;;10.17;58.13;100664.16;4975731;29;20049;-94
2023/04/26 07:06:27;;;;;;;8.85;2.40;;;;;;;10.42;55.34;100666.66;4972159;29;20134;-93
2023/04/26 07:25:29;;;;;;;6.85;2.40;;;;;;;10.32;53.71;100608.88;5845920;22;6764587;-94
2023/04/26 07:28:43;;;;;;;9.38;2.90;;;;;;;10.62;54.42;100660.53;6157116;23;20048;-94
2023/04/26 07:34:11;;;;;;;8.50;2.50;;;;;;;11.06;53.34;100647.09;6180975;23;20060;-93
2023/04/26 07:40:33;;;;;;;6.43;2.45;;;;;;;10.88;52.63;100662.91;6151589;23;20018;-94
2023/04/26 07:44:14;;;;;;;7.45;1.90;;;;;;;11.08;50.16;100557.81;6137443;23;20033;-94
2023/04/26 07:47:35;;;;;;;6.38;2.30;;;;;;;11.86;51.28;100669.91;6141933;23;20069;-95
2023/04/26 07:51:42;;;;;;;6.70;2.45;;;;;;;11.37;48.56;100591.75;6160261;23;20018;-93
2023/04/26 07:54:39;;;;;;;4.38;2.08;;;;;;;11.51;49.92;100662.69;6150979;23;20017;-95
2023/04/26 08:00:58;;;;;;;8.30;2.50;;;;;;;9.83;53.26;100661.13;6104769;23;19917;-95
2023/04/26 08:04:07;;;;;;;5.38;2.45;;;;;;;9.23;55.82;100593.88;6132478;23;20070;-94
2023/04/26 08:07:44;;;;;;;8.98;2.70;;;;;;;9.97;55.22;100619.13;6131063;23;20504;-94
2023/04/26 08:11:11;;;;;;;7.63;2.83;;;;;;;10.87;52.85;100662.97;6096730;23;20021;-94
2023/04/26 08:15:31;;;;;;;;;;;;;;;;;;;;;
2023/04/26 08:21:38;;;;;;;5.25;2.45;;;;;;;12.02;48.53;100664.72;6146846;23;20028;-93
2023/04/26 08:25:32;;;;;;;6.30;2.25;;;;;;;12.21;47.22;100646.94;6063435;23;20023;-93
2023/04/26 08:28:44;;;;;;;7.00;2.60;;;;;;;12.05;46.88;100658.41;6066976;23;20007;-93
2023/04/26 08:32:44;;;;;;;;;;;;;;;;;;;;;
2023/04/26 08:36:31;;;;;;;5.28;2.55;;;;;;;11.38;46.49;100657.13;6060256;23;20015;-95
2023/04/26 08:39:45;;;;;;;7.25;2.90;;;;;;;11.29;46.36;100631.03;6061063;23;20023;-95
2023/04/26 08:42:43;;;;;;;5.95;2.63;;;;;;;11.51;45.99;100605.22;6040521;23;20052;-95
2023/04/26 08:45:46;;;;;;;6.10;2.40;;;;;;;12.26;44.51;100658.22;6040163;23;20007;-96
2023/04/26 08:48:56;;;;;;;5.18;2.47;;;;;;;12.44;44.93;100648.44;6041700;23;20034;-95
2023/04/26 08:52:06;;;;;;;5.75;2.47;;;;;;;12.87;43.16;100643.59;6013494;23;20014;-95
2023/04/26 08:55:00;;;;;;;6.22;2.10;;;;;;;13.06;43.05;100648.81;6023503;23;20200;-94
2023/04/26 09:01:20;;;;;;;7.30;2.40;;;;;;;12.28;42.54;100587.28;6144190;23;20038;-93
2023/04/26 09:04:23;;;;;;;5.72;2.35;;;;;;;12.17;43.77;100592.28;6125111;23;20033;-95
2023/04/26 09:07:07;;;;;;;7.57;2.75;;;;;;;12.23;43.71;100584.00;6153873;23;20018;-94
2023/04/26 09:09:56;;;;;;;6.80;2.70;;;;;;;11.88;45.61;100593.72;6128970;23;20021;-96
2023/04/26 09:12:53;;;;;;;10.10;3.00;;;;;;;11.60;46.92;100635.75;6133697;23;20025;-95
2023/04/26 09:16:09;;;;;;;7.40;3.22;;;;;;;11.06;48.21;100633.84;6152415;23;20018;-94
2023/04/26 09:19:16;;;;;;;6.07;2.65;;;;;;;10.41;47.96;100571.41;6107627;23;20034;-94
2023/04/26 09:22:07;;;;;;;8.60;2.85;;;;;;;10.71;46.40;100617.75;6120531;23;20050;-95
2023/04/26 09:25:12;;;;;;;6.25;2.30;;;;;;;11.08;46.10;100632.00;6113336;23;20010;-95
2023/04/26 09:28:02;;;;;;;6.90;2.60;;;;;;;10.90;45.82;100541.81;6129295;23;20025;-96
2023/04/26 09:30:57;;;;;;;11.00;2.67;;;;;;;11.14;45.47;100547.78;6124023;23;20025;-95
2023/04/26 09:34:00;;;;;;;6.43;2.33;;;;;;;11.96;43.94;100627.88;6152945;23;20070;-95
2023/04/26 09:36:57;;;;;;;5.72;2.17;;;;;;;11.55;43.61;100553.75;6128990;23;20018;-94
2023/04/26 09:39:39;;;;;;;4.97;2.30;;;;;;;11.59;43.01;100538.56;6124393;23;20018;-95
2023/04/26 09:42:21;;;;;;;6.55;2.38;;;;;;;12.10;43.21;100630.72;6126961;23;20045;-94
2023/04/26 09:45:24;;;;;;;6.80;2.40;;;;;;;12.03;42.75;100623.09;6128217;23;20048;-94
2023/04/26 09:48:34;;;;;;;7.22;2.50;;;;;;;12.25;41.77;100629.94;6148192;23;20044;-94
2023/04/26 09:52:01;;;;;;;5.43;2.70;;;;;;;11.96;41.71;100569.50;6152439;23;20018;-94
2023/04/26 09:54:53;;;;;;;8.07;2.45;;;;;;;11.54;42.09;100527.31;6126670;23;20022;-93
2023/04/26 09:58:26;;;;;;;6.47;2.53;;;;;;;11.82;42.32;100606.44;6153269;23;20025;-93
2023/04/26 10:05:01;;;;;;;6.68;2.15;;;;;;;11.01;42.99;100545.78;6037658;23;20017;-93
2023/04/26 10:08:02;;;;;;;3.88;2.25;;;;;;;11.28;41.91;100565.69;6023977;23;20007;-93
2023/04/26 10:10:56;;;;;;;4.03;1.83;;;;;;;11.45;41.77;100584.31;6041262;23;20018;-95
2023/04/26 10:13:40;;;;;;;6.22;2.25;;;;;;;11.65;42.62;100585.16;6060425;23;20043;-94
2023/04/26 10:16:25;;;;;;;5.40;2.00;;;;;;;11.63;43.38;100565.81;6039449;23;20062;-94
2023/04/26 10:19:04;;;;;;;7.00;2.58;;;;;;;11.79;43.63;100593.34;6039714;23;20035;-93
2023/04/26 10:21:50;;;;;;;6.93;2.50;;;;;;;11.81;42.93;100602.91;6060612;23;20019;-93
2023/04/26 10:24:49;;;;;;;6.90;2.42;;;;;;;11.24;43.63;100575.56;6058766;23;20094;-93
2023/04/26 10:28:29;;;;;;;5.55;2.17;;;;;;;11.45;43.25;100607.31;6062788;23;20081;-92
2023/04/26 10:31:23;;;;;;;6.22;2.25;;;;;;;11.56;43.89;100603.22;6066283;23;20071;-93
2023/04/26 10:34:23;;;;;;;5.60;2.15;;;;;;;12.10;41.52;100605.94;6125631;23;20085;-94
2023/04/26 10:37:20;;;;;;;9.20;2.33;;;;;;;12.52;40.45;100594.94;6128681;23;20018;-94
2023/04/26 10:40:35;;;;;;;5.97;2.28;;;;;;;13.11;40.03;100590.91;6121638;23;20022;-94
2023/04/26 10:43:26;;;;;;;4.32;2.65;;;;;;;12.84;39.92;100593.25;6123663;23;20022;-94
2023/04/26 10:51:27;;;;;;;6.38;2.40;;;;;;;12.32;39.95;100580.03;6148694;23;20020;-94
2023/04/26 10:54:47;;;;;;;4.15;1.73;;;;;;;12.61;38.99;100583.81;6117768;23;20018;-94
2023/04/26 10:57:22;;;;;;;7.03;2.50;;;;;;;12.18;38.78;100490.47;6119240;23;20033;-95
2023/04/26 11:00:32;;;;;;;8.18;2.15;;;;;;;12.48;39.29;100548.22;6121377;23;20018;-94
2023/04/26 11:03:16;;;;;;;5.75;2.08;;;;;;;12.74;39.85;100573.44;6120874;23;20010;-95
2023/04/26 11:06:08;;;;;;;4.63;2.08;;;;;;;13.00;38.66;100560.44;6123953;23;20018;-95
2023/04/26 11:10:00;;;;;;;5.65;1.80;;;;;;;13.08;38.01;100565.34;6104127;23;20045;-94
2023/04/26 11:13:04;;;;;;;5.38;1.60;;;;;;;12.48;38.41;100559.69;6093467;23;20149;-93
2023/04/26 11:15:45;;;;;;;7.07;1.88;;;;;;;12.09;38.80;100554.66;6070341;23;20011;-94
2023/04/26 11:19:15;;;;;;;5.35;1.70;;;;;;;12.04;39.65;100564.63;6091535;23;20015;-93
2023/04/26 11:22:11;;;;;;;10.40;2.58;;;;;;;12.25;39.00;100529.03;6090540;23;20051;-92
2023/04/26 11:25:03;;;;;;;5.03;1.95;;;;;;;12.13;38.12;100519.03;6051635;23;20038;-93
2023/04/26 11:27:54;;;;;;;7.53;1.83;;;;;;;12.22;39.56;100531.84;6073202;23;20010;-94
2023/04/26 11:30:24;;;;;;;;;;;;;;;12.45;39.89;100561.66;6115919;23;20018;-93
2023/04/26 11:33:05;;;;;;;12.68;6.60;;;;;;;12.55;40.05;100510.66;6117813;23;20275;-93
2023/04/26 11:35:52;;;;;;;7.35;2.45;;;;;;;13.29;38.08;100502.16;6117793;23;20067;-94
2023/04/26 11:38:39;;;;;;;3.30;1.55;;;;;;;13.86;37.37;100531.69;6074493;23;20025;-95
2023/04/26 11:41:23;;;;;;;7.93;1.95;;;;;;;14.16;36.98;100532.56;6091991;23;20324;-92
2023/04/26 11:44:19;;;;;;;5.20;2.40;;;;;;;14.29;36.58;100535.34;6094984;23;20120;-93
2023/04/26 11:47:10;;;;;;;8.48;1.88;;;;;;;13.87;36.83;100531.59;6133944;23;20038;-92
2023/04/26 11:50:02;;;;;;;6.25;1.70;;;;;;;13.63;35.96;100485.16;6116162;23;20042;-94
2023/04/26 11:53:17;;;;;;;4.32;1.75;;;;;;;14.00;35.36;100489.16;6116814;23;20102;-94
2023/04/26 11:56:20;;;;;;;3.08;1.50;;;;;;;14.84;35.05;100534.66;6115673;23;20044;-93
2023/04/26 11:59:10;;;;;;;5.43;1.90;;;;;;;14.32;35.37;100479.25;6114374;23;20380;-92
2023/04/26 12:02:17;;;;;;;4.97;1.42;;;;;;;14.47;35.90;100488.13;6104160;23;20053;-93
2023/04/26 12:05:02;;;;;;;8.32;2.08;;;;;;;13.98;35.62;100448.47;6113150;23;20018;-94
2023/04/26 12:07:50;;;;;;;7.68;1.80;;;;;;;13.94;36.27;100490.38;6117874;23;20057;-92
2023/04/26 12:10:37;;;;;;;5.43;1.52;;;;;;;13.54;36.87;100498.97;6118320;23;20025;-93
2023/04/26 12:13:19;;;;;;;4.78;1.90;;;;;;;12.65;37.93;100450.75;6121089;23;20022;-93
2023/04/26 12:16:08;;;;;;;4.32;1.70;;;;;;;12.72;39.54;100511.53;6119270;23;20504;-93
2023/04/26 12:19:21;;;;;;;4.95;2.00;;;;;;;12.80;39.74;100514.63;6116860;23;20030;-93
2023/04/26 12:25:19;;;;;;;4.25;1.70;;;;;;;12.09;37.99;100456.44;6058773;23;20077;-94
2023/04/26 12:27:55;;;;;;;4.72;1.63;;;;;;;12.91;37.27;100514.88;6129546;23;20061;-93
2023/04/26 12:30:38;;;;;;;4.32;1.33;;;;;;;12.98;36.78;100519.81;6153225;23;20024;-94
2023/04/26 12:33:25;;;;;;;4.65;1.75;;;;;;;12.17;37.82;100472.81;6128897;23;20013;-95
2023/04/26 12:36:27;;;;;;;3.80;1.70;;;;;;;12.17;38.03;100471.97;6087951;23;20014;-95
2023/04/26 12:39:35;;;;;;;4.45;1.52;;;;;;;12.40;38.52;100515.91;6124231;23;20094;-95
2023/04/26 12:42:28;;;;;;;3.88;1.90;;;;;;;12.74;37.85;100513.19;6128834;23;20013;-91
2023/04/26 12:45:09;;;;;;;3.63;1.30;;;;;;;12.71;38.37;100438.94;6127814;23;20032;-94
2023/04/26 12:47:53;;;;;;;6.18;1.98;;;;;;;13.25;37.38;100463.38;6125941;23;20032;-95
2023/04/26 12:50:23;;;;;;;13.70;1.77;;;;;;;13.33;37.60;100439.91;6126223;23;20008;-94
2023/04/26 12:53:11;;;;;;;2.83;1.52;;;;;;;13.49;37.48;100430.09;6129393;23;20082;-95
2023/04/26 12:55:51;;;;;;;4.20;1.88;;;;;;;13.86;35.59;100426.06;6129734;23;20006;-94
2023/04/26 12:58:37;;;;;;;5.80;1.75;;;;;;;14.18;34.82;100466.72;6128891;23;20025;-95
2023/04/26 13:01:05;;;;;;;5.82;2.40;;;;;;;14.12;35.94;100509.72;6123642;23;20036;-93
2023/04/26 13:03:38;;;;;;;4.20;1.70;;;;;;;13.58;36.09;100477.41;6125218;23;20056;-94
2023/04/26 13:06:58;;;;;;;3.63;1.73;;;;;;;13.72;36.57;100513.88;6134764;23;20061;-94
2023/04/26 13:09:26;;;;;;;6.38;2.67;;;;;;;13.21;37.28;100469.84;6126686;23;20006;-93
2023/04/26 13:12:05;;;;;;;5.45;1.90;;;;;;;13.69;36.69;100504.25;6109147;23;20037;-92
2023/04/26 13:15:00;;;;;;;4.75;1.70;;;;;;;13.85;35.62;100504.22;6109526;23;20006;-92
2023/04/26 13:17:34;;;;;;;4.47;1.77;;;;;;;13.97;36.17;100506.19;6128077;23;20022;-93
2023/04/26 13:20:37;;;;;;;5.35;1.85;;;;;;;14.15;35.43;100487.41;6132662;23;20096;-95
2023/04/26 13:23:08;;;;;;;6.63;2.03;;;;;;;14.38;36.31;100493.03;6115659;23;20018;-95
2023/04/26 13:25:40;;;;;;;5.18;1.70;;;;;;;14.32;35.41;100452.59;6096318;23;20018;-94
2023/04/26 13:28:25;;;;;;;5.38;1.65;;;;;;;14.68;35.25;100502.78;6169939;23;20017;-94
2023/04/26 13:31:07;;;;;;;5.47;1.88;;;;;;;14.37;36.22;100512.63;6145803;23;20136;-95
2023/04/26 13:33:48;;;;;;;5.82;2.50;;;;;;;14.36;35.89;100513.56;6168069;23;20334;-93
2023/04/26 13:36:23;;;;;;;6.40;2.53;;;;;;;14.05;36.68;100482.59;6119850;23;20048;-92
2023/04/26 13:39:33;;;;;;;7.45;2.22;;;;;;;14.20;36.52;100507.44;6132292;23;20013;-92
2023/04/26 13:42:16;;;;;;;5.75;1.90;;;;;;;14.01;36.86;100464.22;6158368;23;20016;-93
2023/04/26 13:45:16;;;;;;;4.47;1.80;;;;;;;14.20;37.24;100474.63;6021962;23;20019;-93
2023/04/26 13:48:17;;;;;;;6.43;1.83;;;;;;;14.59;36.83;100509.53;5989599;23;20023;-93
2023/04/26 13:50:51;;;;;;;5.22;1.77;;;;;;;14.07;36.58;100500.28;6033462;23;20102;-93
2023/04/26 13:53:34;;;;;;;7.13;1.85;;;;;;;13.95;36.61;100502.75;6057997;23;20155;-91
2023/04/26 13:56:29;;;;;;;3.58;1.52;;;;;;;13.63;37.31;100475.34;6037261;23;20039;-93
2023/04/26 13:59:26;;;;;;;4.50;1.80;;;;;;;13.74;36.20;100497.81;6018952;23;20023;-92
2023/04/26 14:02:54;;;;;;;7.18;2.42;;;;;;;13.65;36.88;100500.09;6037920;23;20027;-93
2023/04/26 14:09:51;;;;;;;6.93;2.20;;;;;;;13.90;36.66;100496.81;5929113;23;20034;-91
2023/04/26 14:12:25;;;;;;;5.68;2.10;;;;;;;13.63;38.01;100495.78;6048525;23;20011;-92
2023/04/26 14:14:55;;;;;;;3.22;1.88;;;;;;;13.62;38.40;100486.09;6037654;23;20019;-94
2023/04/26 14:17:26;;;;;;;4.25;1.90;;;;;;;13.35;37.11;100427.38;6060376;23;20050;-91
2023/04/26 14:19:56;;;;;;;5.18;1.80;;;;;;;13.88;38.58;100487.22;6124300;23;20044;-91
2023/04/26 14:22:26;;;;;;;5.70;1.70;;;;;;;14.31;38.42;100489.03;6155137;23;20013;-92
2023/04/26 14:25:23;;;;;;;4.13;1.52;;;;;;;14.75;36.37;100482.78;6160604;23;20040;-93
2023/04/26 14:28:31;;;;;;;6.10;2.35;;;;;;;14.29;36.40;100392.38;6174890;23;20025;-92
2023/04/26 14:31:31;;;;;;;5.95;2.05;;;;;;;14.37;35.13;100447.81;6170783;23;20108;-93
2023/04/26 14:34:41;;;;;;;4.00;1.95;;;;;;;14.38;36.68;100482.38;6174299;23;20408;-94
2023/04/26 14:41:20;;;;;;;7.57;2.03;;;;;;;14.19;36.57;100473.78;6169862;23;20018;-92
2023/04/26 14:44:36;;;;;;;4.00;1.83;;;;;;;13.94;36.82;100468.22;6171020;23;20017;-94
2023/04/26 14:47:23;;;;;;;5.55;2.15;;;;;;;13.50;37.58;100463.72;6175796;23;20037;-94
2023/04/26 14:54:23;;;;;;;4.18;1.73;;;;;;;13.62;38.10;100463.00;6119414;23;20029;-94
2023/04/26 14:57:09;;;;;;;7.32;2.00;;;;;;;13.53;38.29;100458.22;6138439;23;20021;-94
2023/04/26 15:00:14;;;;;;;5.40;2.00;;;;;;;13.73;37.36;100462.34;6171259;23;20076;-95
2023/04/26 15:03:23;;;;;;;2.67;1.60;;;;;;;13.93;37.28;100454.06;6156225;23;20070;-95
2023/04/26 15:06:37;;;;;;;5.13;1.98;;;;;;;14.20;36.99;100448.00;6161462;23;20057;-93
2023/04/26 15:09:54;;;;;;;7.88;2.13;;;;;;;13.66;36.97;100379.38;6168320;23;20023;-95
2023/04/26 15:13:13;;;;;;;5.43;1.73;;;;;;;13.36;37.79;100437.06;6167320;23;20024;-93
2023/04/26 15:16:27;;;;;;;5.45;1.70;;;;;;;12.95;38.39;100405.66;6158820;23;20065;-94
2023/04/26 15:19:11;;;;;;;6.75;1.95;;;;;;;13.20;39.01;100450.38;6158087;23;20063;-93
2023/04/26 15:21:41;;;;;;;4.53;1.80;;;;;;;12.60;39.21;100366.91;6133176;23;20020;-94
2023/04/26 15:24:22;;;;;;;4.80;1.83;;;;;;;12.59;39.10;100368.72;6159371;23;20029;-93
2023/04/26 15:27:09;;;;;;;5.20;1.55;;;;;;;13.00;39.23;100439.97;6120779;23;20025;-93
2023/04/26 15:29:55;;;;;;;8.05;2.05;;;;;;;12.92;40.04;100443.03;6150197;23;20017;-93
2023/04/26 15:32:45;;;;;;;4.40;1.70;;;;;;;12.72;40.16;100438.00;6148695;23;20010;-93
2023/04/26 15:35:17;;;;;;;5.13;1.67;;;;;;;12.35;40.43;100386.03;6153943;23;20061;-94
2023/04/26 15:38:08;;;;;;;6.40;1.95;;;;;;;12.56;41.02;100431.81;6152951;23;20037;-94
2023/04/26 15:41:11;;;;;;;6.43;1.90;;;;;;;12.27;40.82;100378.47;6153686;23;20014;-94
2023/04/26 15:44:04;;;;;;;6.55;1.83;;;;;;;12.36;40.44;100386.88;6148637;23;20093;-94
2023/04/26 15:46:51;;;;;;;3.28;1.80;;;;;;;12.83;40.21;100443.56;6149964;23;20018;-94
2023/04/26 15:49:38;;;;;;;5.90;1.88;;;;;;;12.81;40.04;100405.59;6142451;23;20078;-92